Time;durP1;ratioP1;P1;durP2;ratioP2;P2;SDS_P1;SDS_P2;PMS_P1;PMS_P2;Temp;Humidity;BMP_temperature;BMP_pressure;BME280_temperature;BME280_humidity;BME280_pressure;Samples;Min_cycle;Max_cycle;Signal;HPM_P1;HPM_P2
2022/12/31 00:01:54;;;;;;;1.30;1.20;;;;;;;14.92;55.38;99291.50;10374336;28;20240;-38
2022/12/31 00:06:56;;;;;;;2.13;1.80;;;;;;;14.62;55.38;99272.53;10392728;28;20347;-38
2022/12/31 00:11:58;;;;;;;1.87;1.70;;;;;;;13.76;57.17;99261.47;10395547;28;20237;-38
2022/12/31 00:16:59;;;;;;;1.70;1.60;;;;;;;15.40;53.96;99291.72;10401962;28;20715;-38
2022/12/31 00:22:01;;;;;;;1.10;1.10;;;;;;;14.65;54.97;99271.28;10402605;28;20672;-38
2022/12/31 00:27:03;;;;;;;2.40;1.73;;;;;;;14.79;56.31;99288.94;10396114;28;20348;-38
2022/12/31 00:32:05;;;;;;;1.37;1.30;;;;;;;13.82;57.40;99281.31;10381030;28;20344;-38
2022/12/31 00:37:06;;;;;;;1.40;1.30;;;;;;;15.08;55.37;99294.63;10387476;28;20240;-37
2022/12/31 00:42:08;;;;;;;1.90;1.80;;;;;;;15.99;53.46;99340.50;10383638;28;20806;-38
2022/12/31 00:47:10;;;;;;;1.73;1.50;;;;;;;15.96;53.13;99349.06;10380178;28;20733;-38
2022/12/31 00:52:14;;;;;;;1.00;1.00;;;;;;;14.67;55.71;99325.75;10397006;28;20241;-38
2022/12/31 00:57:16;;;;;;;1.43;1.33;;;;;;;13.92;57.31;99340.81;10401425;28;20237;-38
2022/12/31 01:02:18;;;;;;;1.80;1.60;;;;;;;14.27;56.03;99328.78;10398146;28;20315;-37
2022/12/31 01:07:20;;;;;;;1.87;1.77;;;;;;;14.96;54.06;99324.19;10398547;28;20237;-38
2022/12/31 01:12:23;;;;;;;1.70;1.60;;;;;;;15.62;54.34;99368.44;10388539;28;20228;-38
2022/12/31 01:17:25;;;;;;;1.10;1.10;;;;;;;14.97;52.83;99325.84;10396665;28;20244;-38
2022/12/31 01:22:27;;;;;;;1.90;1.80;;;;;;;16.79;50.89;99385.94;10397192;28;20251;-38
2022/12/31 01:27:29;;;;;;;1.80;1.70;;;;;;;16.85;50.90;99388.75;10401805;28;20240;-37
2022/12/31 01:32:30;;;;;;;2.10;1.30;;;;;;;15.45;52.51;99362.81;10393414;28;20236;-37
2022/12/31 01:37:32;;;;;;;1.40;1.30;;;;;;;15.92;50.70;99345.19;10400737;28;20339;-37
2022/12/31 01:42:34;;;;;;;6.67;1.80;;;;;;;16.55;50.07;99385.13;10391707;28;20619;-37
2022/12/31 01:47:41;;;;;;;1.70;1.60;;;;;;;15.10;52.55;99354.50;10405279;28;20264;-37
2022/12/31 01:52:48;;;;;;;1.83;1.40;;;;;;;16.54;49.61;99351.06;10400228;28;20623;-37
2022/12/31 01:57:56;;;;;;;1.50;1.40;;;;;;;16.13;50.64;99343.81;10403449;28;20228;-37
2022/12/31 02:02:58;;;;;;;1.67;1.57;;;;;;;16.59;49.07;99343.06;10394334;28;20235;-38
2022/12/31 02:08:02;;;;;;;1.73;1.57;;;;;;;16.01;50.90;99370.78;10392644;28;20248;-37
2022/12/31 02:13:04;;;;;;;1.57;1.47;;;;;;;16.73;49.93;99335.53;10392910;28;20241;-37
2022/12/31 02:18:33;;;;;;;1.67;1.57;;;;;;;15.76;51.03;99330.47;10400007;28;20236;-37
2022/12/31 02:23:38;;;;;;;1.60;1.50;;;;;;;15.91;50.32;99330.03;10397371;28;20240;-37
2022/12/31 02:29:17;;;;;;;1.70;1.57;;;;;;;16.70;50.05;99348.69;10393910;28;20615;-37
2022/12/31 02:34:30;;;;;;;2.23;1.47;;;;;;;17.46;48.02;99359.50;10396586;28;20236;-38
2022/12/31 02:39:34;;;;;;;1.10;1.10;;;;;;;16.37;49.95;99339.31;10393548;28;20238;-37
2022/12/31 02:44:39;;;;;;;3.80;1.40;;;;;;;14.87;51.77;99333.63;10397050;28;20243;-38
2022/12/31 02:50:04;;;;;;;1.47;1.37;;;;;;;15.52;51.36;99333.88;10398122;28;20538;-37
2022/12/31 02:55:41;;;;;;;1.67;1.57;;;;;;;16.85;49.62;99311.19;10398033;28;20351;-38
2022/12/31 03:06:14;;;;;;;1.50;1.40;;;;;;;17.56;47.53;99329.94;10397941;28;21237;-37
2022/12/31 03:12:45;;;;;;;1.80;1.70;;;;;;;16.82;48.77;99287.38;10400989;28;20236;-38
2022/12/31 03:16:37;;;;;;;1.70;1.60;;;;;;;15.75;50.89;99345.81;10398115;28;20718;-37
2022/12/31 03:26:59;;;;;;;1.10;1.10;;;;;;;16.09;49.11;99275.97;10395198;28;20232;-37
2022/12/31 03:32:01;;;;;;;1.20;1.10;;;;;;;17.01;49.06;99311.56;10379442;28;20236;-37
2022/12/31 03:37:02;;;;;;;1.00;1.00;;;;;;;16.14;50.79;99297.69;10397122;28;20228;-37
2022/12/31 03:42:04;;;;;;;1.30;1.13;;;;;;;15.45;51.95;99318.84;10408532;28;20928;-38
2022/12/31 03:47:06;;;;;;;1.60;1.50;;;;;;;16.96;49.92;99305.00;10403365;28;20236;-37
2022/12/31 03:52:08;;;;;;;1.47;1.37;;;;;;;17.72;47.80;99285.91;10396877;28;20235;-38
2022/12/31 03:57:09;;;;;;;1.30;1.20;;;;;;;16.85;49.22;99272.56;10406879;28;20229;-37
2022/12/31 04:02:11;;;;;;;1.40;1.30;;;;;;;16.36;50.17;99319.56;10413221;28;20240;-38
2022/12/31 04:07:13;;;;;;;1.33;1.23;;;;;;;15.56;50.29;99252.56;10406221;28;20236;-37
2022/12/31 04:12:15;;;;;;;1.30;1.20;;;;;;;16.00;49.53;99258.50;10400341;28;20679;-38
2022/12/31 04:17:17;;;;;;;1.67;1.20;;;;;;;16.59;50.30;99307.13;10405688;28;20838;-37
2022/12/31 04:22:19;;;;;;;1.20;1.20;;;;;;;16.87;48.71;99263.16;10404588;28;20232;-38
2022/12/31 04:27:20;;;;;;;2.30;1.40;;;;;;;17.57;48.24;99274.78;10406261;28;20228;-38
2022/12/31 04:32:22;;;;;;;1.50;1.20;;;;;;;16.00;50.96;99285.50;10406150;28;20244;-38
2022/12/31 04:37:24;;;;;;;1.57;1.30;;;;;;;17.24;49.02;99287.19;10402457;28;20260;-38
2022/12/31 04:42:26;;;;;;;1.10;1.00;;;;;;;17.17;49.32;99264.84;10401663;28;20241;-38
2022/12/31 04:47:28;;;;;;;1.20;1.10;;;;;;;16.12;51.36;99310.59;10403932;28;20255;-38
2022/12/31 04:52:29;;;;;;;1.20;1.20;;;;;;;17.70;48.96;99260.16;10403552;28;20246;-37
2022/12/31 04:57:32;;;;;;;1.83;1.30;;;;;;;16.52;49.45;99230.81;10405253;28;20287;-38
2022/12/31 05:02:33;;;;;;;1.50;1.40;;;;;;;17.45;49.32;99266.72;10397934;28;20233;-37
2022/12/31 05:07:35;;;;;;;1.20;1.20;;;;;;;17.07;49.11;99234.91;10401546;28;20232;-37
2022/12/31 05:12:37;;;;;;;1.53;1.10;;;;;;;15.65;51.17;99278.13;10381979;28;20240;-37
2022/12/31 05:17:39;;;;;;;2.17;1.40;;;;;;;17.04;49.78;99300.25;10366704;28;20924;-37
2022/12/31 05:22:41;;;;;;;1.30;1.20;;;;;;;18.18;47.57;99298.56;10383918;28;20240;-38
2022/12/31 05:27:44;;;;;;;1.67;1.13;;;;;;;17.79;48.71;99312.81;10382795;28;21022;-38
2022/12/31 05:32:46;;;;;;;1.17;1.17;;;;;;;17.58;48.38;99294.53;10390771;28;20239;-38
2022/12/31 05:37:47;;;;;;;1.50;1.40;;;;;;;17.85;47.55;99270.41;10403687;28;20461;-38
2022/12/31 05:42:49;;;;;;;1.17;1.10;;;;;;;16.73;49.03;99284.19;10400433;28;20236;-38
2022/12/31 05:47:51;;;;;;;1.60;1.50;;;;;;;15.58;52.10;99329.47;10403428;28;20228;-37
2022/12/31 05:52:53;;;;;;;2.20;1.90;;;;;;;17.25;49.08;99309.63;10393412;28;20238;-38
2022/12/31 05:57:55;;;;;;;1.40;1.30;;;;;;;16.73;49.85;99359.03;10403072;28;20232;-38
2022/12/31 06:02:56;;;;;;;1.60;1.50;;;;;;;17.05;49.94;99328.94;10393508;28;20246;-37
2022/12/31 06:07:58;;;;;;;1.40;1.30;;;;;;;15.54;51.47;99297.75;10405111;28;20227;-37
2022/12/31 06:13:00;;;;;;;1.20;1.10;;;;;;;16.19;51.29;99345.59;10400165;28;20246;-37
2022/12/31 06:18:02;;;;;;;1.33;1.23;;;;;;;17.17;49.96;99294.59;10403283;28;20238;-37
2022/12/31 06:23:04;;;;;;;1.27;1.27;;;;;;;16.35;50.42;99342.25;10383589;28;20730;-38
2022/12/31 06:28:06;;;;;;;2.30;1.67;;;;;;;16.71;49.88;99337.66;10407022;28;20264;-38
2022/12/31 06:33:07;;;;;;;2.20;2.10;;;;;;;17.10;49.34;99332.56;10392930;28;20227;-37
2022/12/31 06:38:09;;;;;;;1.70;1.60;;;;;;;16.15;49.94;99342.53;10397464;28;20643;-37
2022/12/31 06:43:11;;;;;;;1.80;1.70;;;;;;;17.13;49.46;99342.09;10396524;28;20248;-37
2022/12/31 06:48:13;;;;;;;1.40;1.40;;;;;;;15.94;50.84;99372.75;10404079;28;20236;-37
2022/12/31 06:53:15;;;;;;;1.40;1.30;;;;;;;15.77;50.92;99349.13;10369739;28;20226;-38
2022/12/31 06:58:16;;;;;;;1.90;1.80;;;;;;;17.63;48.33;99330.66;10392302;28;20248;-37
2022/12/31 07:03:27;;;;;;;1.70;1.60;;;;;;;16.11;49.14;99327.88;10399936;28;20242;-37
2022/12/31 07:08:29;;;;;;;1.43;1.40;;;;;;;15.07;51.10;99322.66;10395232;28;20887;-37
2022/12/31 07:14:01;;;;;;;1.93;1.27;;;;;;;16.65;48.93;99364.78;10401698;28;20350;-37
2022/12/31 07:19:37;;;;;;;2.00;1.50;;;;;;;17.38;47.08;99316.59;10403278;28;20320;-37
2022/12/31 07:24:40;;;;;;;1.90;1.80;;;;;;;17.00;48.81;99397.22;10406173;28;20254;-38
2022/12/31 07:29:53;;;;;;;1.50;1.40;;;;;;;16.60;49.25;99419.50;10404814;28;20612;-38
2022/12/31 07:35:09;;;;;;;2.07;1.90;;;;;;;18.62;45.79;99383.53;10402405;28;20240;-38
2022/12/31 07:40:22;;;;;;;1.50;1.40;;;;;;;16.94;47.78;99380.06;10400173;28;20334;-38
2022/12/31 07:45:56;;;;;;;1.60;1.50;;;;;;;16.87;48.18;99440.66;10400549;28;20949;-38
2022/12/31 07:50:58;;;;;;;2.77;1.50;;;;;;;17.51;47.39;99387.50;10364890;28;20260;-38
2022/12/31 07:56:01;;;;;;;1.77;1.67;;;;;;;17.36;47.00;99420.44;10398541;28;20259;-38
2022/12/31 08:01:04;;;;;;;1.87;1.67;;;;;;;18.50;46.29;99390.09;10394557;28;20239;-38
2022/12/31 08:06:23;;;;;;;1.77;1.63;;;;;;;17.22;47.18;99375.78;10391806;28;20233;-38
2022/12/31 08:11:53;;;;;;;1.93;1.80;;;;;;;17.92;46.91;99414.53;10391451;28;20232;-38
2022/12/31 08:16:56;;;;;;;2.00;1.67;;;;;;;17.32;46.56;99389.53;10398613;28;20614;-38
2022/12/31 08:22:03;;;;;;;3.33;1.77;;;;;;;17.14;47.11;99404.03;10393959;28;20235;-38
2022/12/31 08:27:28;;;;;;;2.13;1.70;;;;;;;18.35;46.13;99418.56;10400169;28;20245;-38
2022/12/31 08:32:47;;;;;;;3.13;2.33;;;;;;;17.33;47.34;99450.66;10390185;28;20577;-38
2022/12/31 08:38:07;;;;;;;2.30;2.10;;;;;;;15.96;49.00;99422.75;10362248;28;20239;-38
2022/12/31 08:43:29;;;;;;;1.33;1.30;;;;;;;17.18;47.39;99432.22;10384024;28;20257;-38
2022/12/31 08:48:42;;;;;;;1.70;1.60;;;;;;;16.65;47.32;99414.25;10372561;28;20232;-38
2022/12/31 08:53:44;;;;;;;2.67;2.10;;;;;;;18.24;46.06;99438.41;10364895;28;20233;-37
2022/12/31 08:59:13;;;;;;;1.47;1.37;;;;;;;17.94;46.51;99423.22;10386870;28;20278;-38
2022/12/31 09:04:44;;;;;;;2.47;1.60;;;;;;;17.03;47.86;99450.00;10391229;28;20245;-38
2022/12/31 09:10:23;;;;;;;2.33;1.73;;;;;;;17.58;46.87;99408.16;10368901;28;20240;-38
2022/12/31 09:15:32;;;;;;;2.93;2.30;;;;;;;17.90;46.26;99427.50;10381557;28;20239;-38
2022/12/31 09:20:35;;;;;;;1.50;1.40;;;;;;;18.25;45.72;99442.72;10392993;28;20315;-38
2022/12/31 09:26:07;;;;;;;1.77;1.67;;;;;;;18.08;45.60;99402.09;10389499;28;20279;-38
2022/12/31 09:31:25;;;;;;;1.77;1.67;;;;;;;18.70;45.33;99433.75;10365254;28;20233;-38
2022/12/31 09:36:33;;;;;;;1.50;1.40;;;;;;;19.89;43.32;99430.75;10393035;28;20240;-38
2022/12/31 09:41:34;;;;;;;2.13;1.70;;;;;;;18.99;45.23;99441.81;10388801;28;20244;-38
2022/12/31 09:46:51;;;;;;;2.90;1.50;;;;;;;18.27;46.39;99459.53;10387876;28;20233;-38
2022/12/31 09:52:16;;;;;;;2.33;1.90;;;;;;;18.77;45.78;99430.88;10392741;28;20232;-38
2022/12/31 09:57:33;;;;;;;2.93;1.40;;;;;;;17.49;46.81;99429.34;10371150;28;20734;-38
2022/12/31 10:03:06;;;;;;;1.57;1.47;;;;;;;18.26;45.94;99434.38;10389816;28;20279;-38
2022/12/31 10:08:32;;;;;;;1.50;1.40;;;;;;;17.41;46.87;99424.31;10387629;28;20228;-38
2022/12/31 10:14:00;;;;;;;2.17;1.30;;;;;;;17.49;47.12;99432.88;10391393;28;20235;-38
2022/12/31 10:19:17;;;;;;;2.17;2.00;;;;;;;17.57;46.84;99436.28;10342755;28;20323;-38
2022/12/31 10:24:18;;;;;;;1.10;1.10;;;;;;;17.24;47.07;99419.66;10392807;28;20731;-38
2022/12/31 10:29:56;;;;;;;2.27;1.40;;;;;;;19.91;44.09;99404.19;10391456;28;20239;-39
2022/12/31 10:35:35;;;;;;;3.40;2.23;;;;;;;18.07;45.38;99400.47;10353350;28;20237;-38
2022/12/31 10:41:18;;;;;;;2.70;2.50;;;;;;;18.81;45.15;99429.31;10368816;28;20439;-38
2022/12/31 10:46:53;;;;;;;2.57;1.80;;;;;;;18.20;45.93;99432.66;10363342;28;20232;-38
2022/12/31 10:52:11;;;;;;;2.27;1.37;;;;;;;17.64;46.24;99402.63;10390457;28;20236;-38
2022/12/31 10:57:37;;;;;;;1.60;1.50;;;;;;;18.89;44.88;99418.03;10385124;28;20239;-38
2022/12/31 11:06:40;;;;;;;1.60;1.50;;;;;;;14.65;51.31;99471.38;10443235;28;20843;-61
2022/12/31 11:12:00;;;;;;;2.00;1.30;;;;;;;15.75;49.88;99436.72;10430902;28;20238;-61
2022/12/31 11:17:17;;;;;;;1.70;1.60;;;;;;;15.71;49.83;99433.66;10466603;28;20230;-61
2022/12/31 11:22:37;;;;;;;1.87;1.77;;;;;;;16.86;48.49;99439.03;10449276;28;20603;-62
2022/12/31 11:28:18;;;;;;;2.20;1.40;;;;;;;16.53;48.44;99426.91;10451469;28;20239;-61
2022/12/31 11:33:26;;;;;;;1.67;1.43;;;;;;;16.98;48.18;99424.47;10445290;28;20227;-64
2022/12/31 11:38:32;;;;;;;2.57;1.80;;;;;;;16.64;48.25;99387.47;10405344;28;20758;-59
2022/12/31 11:43:53;;;;;;;5.43;1.80;;;;;;;16.37;48.50;99387.91;10445375;28;20243;-60
2022/12/31 11:49:10;;;;;;;1.50;1.40;;;;;;;16.87;48.16;99419.06;10442368;28;20246;-60
2022/12/31 11:54:30;;;;;;;1.43;1.33;;;;;;;17.09;47.17;99363.38;10443556;28;20720;-61
2022/12/31 11:59:32;;;;;;;1.17;1.00;;;;;;;17.02;47.99;99410.50;10433712;28;20589;-61
2022/12/31 12:04:34;;;;;;;1.60;1.50;;;;;;;15.80;49.10;99410.72;10428825;28;20331;-60
2022/12/31 12:09:36;;;;;;;1.40;1.40;;;;;;;17.34;47.19;99363.09;10422001;28;20831;-60
2022/12/31 12:14:40;;;;;;;1.73;1.63;;;;;;;18.02;45.84;99346.25;10411881;28;20228;-60
2022/12/31 12:19:44;;;;;;;1.70;1.60;;;;;;;17.16;47.07;99388.41;10439692;28;20274;-60
2022/12/31 12:25:14;;;;;;;2.00;1.27;;;;;;;17.64;46.39;99393.69;10439817;28;20869;-60
2022/12/31 12:30:26;;;;;;;3.00;1.67;;;;;;;17.53;46.61;99422.41;10437580;28;20235;-60
2022/12/31 12:35:33;;;;;;;2.10;1.90;;;;;;;18.94;45.05;99384.81;10445400;28;20748;-60
2022/12/31 12:40:35;;;;;;;2.13;1.30;;;;;;;17.55;46.50;99429.22;10441491;28;20270;-61
2022/12/31 12:45:46;;;;;;;1.70;1.30;;;;;;;16.89;47.06;99412.38;10448250;28;20231;-61
2022/12/31 12:50:53;;;;;;;2.97;1.67;;;;;;;18.42;45.19;99353.38;10443499;28;20715;-60
2022/12/31 12:56:26;;;;;;;1.93;1.30;;;;;;;17.76;45.72;99378.22;10429713;28;20717;-61
2022/12/31 13:01:40;;;;;;;3.87;1.93;;;;;;;17.83;45.80;99370.81;10436473;28;20246;-60
2022/12/31 13:06:44;;;;;;;6.60;3.87;;;;;;;18.18;45.78;99369.78;10435609;28;20358;-60
2022/12/31 13:12:11;;;;;;;12.00;6.23;;;;;;;17.34;45.74;99370.34;10433199;28;20236;-61
2022/12/31 13:17:39;;;;;;;7.87;7.07;;;;;;;18.79;44.52;99355.56;10436218;28;20227;-62
2022/12/31 13:23:13;;;;;;;1.80;1.40;;;;;;;18.13;44.79;99336.38;10454535;28;20231;-61
2022/12/31 13:28:17;;;;;;;11.80;7.30;;;;;;;17.67;45.10;99374.28;10442365;28;20262;-61
2022/12/31 13:33:23;;;;;;;12.30;8.00;;;;;;;17.91;45.00;99386.63;10450972;28;20231;-61
2022/12/31 13:38:27;;;;;;;8.23;5.90;;;;;;;17.94;44.93;99350.16;10440962;28;20267;-60
2022/12/31 13:43:42;;;;;;;1.97;1.87;;;;;;;18.06;45.15;99386.09;10447276;28;20238;-61
2022/12/31 13:49:23;;;;;;;1.40;1.30;;;;;;;18.20;44.89;99364.97;10443760;28;20232;-61
2022/12/31 13:54:42;;;;;;;1.50;1.40;;;;;;;18.54;44.36;99346.00;10436257;28;20730;-60
2022/12/31 13:59:50;;;;;;;2.00;1.80;;;;;;;18.98;42.90;99304.63;10444671;28;20242;-61
2022/12/31 14:04:59;;;;;;;1.50;1.40;;;;;;;18.98;43.51;99337.97;10445937;28;20243;-61
2022/12/31 14:10:00;;;;;;;2.50;1.43;;;;;;;17.90;44.34;99355.22;10445098;28;20236;-61
2022/12/31 14:15:22;;;;;;;1.70;1.60;;;;;;;17.95;44.69;99384.28;10448341;28;20614;-61
2022/12/31 14:20:39;;;;;;;3.50;1.70;;;;;;;18.88;44.11;99342.38;10433426;28;20576;-61
2022/12/31 14:25:48;;;;;;;1.30;1.20;;;;;;;17.50;44.99;99368.78;10444169;28;20238;-61
2022/12/31 14:30:59;;;;;;;1.80;1.63;;;;;;;17.28;44.95;99366.75;10458857;28;20247;-62
2022/12/31 14:36:10;;;;;;;1.70;1.60;;;;;;;17.15;46.26;99400.25;10451234;28;20236;-62
2022/12/31 14:41:34;;;;;;;1.60;1.50;;;;;;;17.13;45.33;99348.31;10438595;28;20603;-62
2022/12/31 14:47:00;;;;;;;1.60;1.50;;;;;;;16.74;46.23;99366.91;10446221;28;20689;-62
2022/12/31 14:52:22;;;;;;;2.90;1.30;;;;;;;16.51;46.26;99361.50;10438675;28;20251;-62
2022/12/31 14:57:26;;;;;;;1.60;1.50;;;;;;;17.06;45.84;99392.78;10438033;28;20239;-61
2022/12/31 15:02:33;;;;;;;1.70;1.60;;;;;;;18.26;44.52;99345.00;10441211;28;20244;-62
2022/12/31 15:08:16;;;;;;;1.90;1.80;;;;;;;18.08;44.17;99362.31;10441902;28;20768;-62
2022/12/31 15:13:37;;;;;;;1.63;1.53;;;;;;;18.35;44.27;99344.63;10443643;28;20493;-61
2022/12/31 15:19:16;;;;;;;1.70;1.60;;;;;;;17.37;44.97;99359.06;10454926;28;20235;-60
2022/12/31 15:24:23;;;;;;;1.50;1.40;;;;;;;17.10;45.88;99402.84;10459418;28;20458;-62
2022/12/31 15:29:35;;;;;;;1.90;1.80;;;;;;;17.78;44.83;99376.13;10449944;28;20250;-59
2022/12/31 15:34:37;;;;;;;1.80;1.70;;;;;;;17.42;45.41;99388.91;10450543;28;20227;-60
2022/12/31 15:39:41;;;;;;;1.40;1.30;;;;;;;16.95;46.36;99410.63;10458183;28;20249;-64
2022/12/31 15:45:01;;;;;;;2.80;1.80;;;;;;;17.44;45.83;99380.56;10447643;28;20237;-63
2022/12/31 15:50:06;;;;;;;1.70;1.60;;;;;;;16.76;45.84;99410.72;10445558;28;20247;-61
2022/12/31 15:55:21;;;;;;;1.90;1.80;;;;;;;18.90;43.80;99353.81;10443525;28;20709;-62
2022/12/31 16:00:23;;;;;;;2.23;1.77;;;;;;;17.15;44.63;99415.66;10436070;28;20610;-61
2022/12/31 16:05:26;;;;;;;2.13;1.93;;;;;;;17.24;45.22;99429.63;10452921;28;20587;-61
2022/12/31 16:10:30;;;;;;;1.87;1.77;;;;;;;17.15;44.93;99421.06;10443071;28;20605;-60
2022/12/31 16:15:33;;;;;;;2.17;1.70;;;;;;;18.75;43.59;99385.06;10441504;28;21313;-60
2022/12/31 16:20:41;;;;;;;2.10;1.90;;;;;;;18.37;43.95;99450.81;10427500;28;20243;-61
2022/12/31 16:25:43;;;;;;;2.30;1.73;;;;;;;18.01;44.26;99469.91;10429044;28;20729;-60
2022/12/31 16:30:57;;;;;;;2.17;1.87;;;;;;;16.39;46.17;99448.72;10427925;28;20239;-60
2022/12/31 16:36:00;;;;;;;2.03;1.83;;;;;;;17.12;45.91;99489.13;10432679;28;20237;-61
2022/12/31 16:41:02;;;;;;;6.07;4.50;;;;;;;16.98;44.71;99440.69;10441603;28;20262;-60
2022/12/31 16:46:27;;;;;;;1.83;1.70;;;;;;;16.63;46.12;99481.16;10435620;28;20253;-60
2022/12/31 16:51:31;;;;;;;2.13;1.67;;;;;;;16.50;45.61;99459.78;10411336;28;20342;-60
2022/12/31 16:56:37;;;;;;;2.20;2.07;;;;;;;17.20;46.02;99477.13;10434864;28;20250;-62
2022/12/31 17:01:40;;;;;;;2.70;2.07;;;;;;;17.49;44.64;99432.88;10442601;28;20234;-60
2022/12/31 17:06:42;;;;;;;2.30;2.10;;;;;;;17.75;44.44;99449.66;10439932;28;20713;-59
2022/12/31 17:11:56;;;;;;;8.53;5.80;;;;;;;19.12;42.74;99384.50;10437947;28;20232;-59
2022/12/31 17:17:00;;;;;;;4.17;3.07;;;;;;;18.71;43.20;99432.72;10437308;28;20228;-60
2022/12/31 17:22:22;;;;;;;2.17;1.97;;;;;;;19.02;42.45;99436.72;10418668;28;20641;-61
2022/12/31 17:27:35;;;;;;;2.27;2.13;;;;;;;18.43;43.65;99460.69;10431867;28;20258;-61
2022/12/31 17:32:37;;;;;;;2.20;2.00;;;;;;;18.53;43.31;99463.56;10416951;28;20990;-60
2022/12/31 17:37:38;;;;;;;2.50;1.60;;;;;;;19.78;41.92;99416.25;10428588;28;20246;-60
2022/12/31 17:42:41;;;;;;;2.47;2.27;;;;;;;19.04;41.92;99414.78;10429261;28;20230;-60
2022/12/31 17:47:47;;;;;;;3.07;2.70;;;;;;;17.26;44.80;99473.47;10442743;28;20240;-61
2022/12/31 17:52:49;;;;;;;2.60;2.40;;;;;;;17.89;44.07;99475.38;10430315;28;20802;-61
2022/12/31 17:57:54;;;;;;;3.13;2.83;;;;;;;17.68;44.32;99487.69;10435501;28;20254;-62
2022/12/31 18:02:56;;;;;;;5.67;3.97;;;;;;;18.22;43.70;99445.91;10422932;28;20243;-60
2022/12/31 18:07:57;;;;;;;3.47;2.87;;;;;;;18.64;43.05;99451.84;10433843;28;20293;-61
2022/12/31 18:13:00;;;;;;;5.37;2.30;;;;;;;18.46;42.66;99433.94;10425793;28;20235;-62
2022/12/31 18:18:20;;;;;;;2.70;2.10;;;;;;;17.67;44.28;99483.31;10434233;28;20811;-60
2022/12/31 18:23:29;;;;;;;3.03;2.40;;;;;;;17.55;44.09;99477.09;10435329;28;20228;-60
2022/12/31 18:28:31;;;;;;;2.77;2.13;;;;;;;18.93;42.70;99440.94;10437755;28;20595;-60
2022/12/31 18:33:33;;;;;;;3.60;3.00;;;;;;;16.32;46.56;99518.19;10437262;28;20806;-61
2022/12/31 18:38:34;;;;;;;2.97;2.40;;;;;;;15.60;47.56;99518.84;10430221;28;20245;-61
2022/12/31 18:43:36;;;;;;;18.93;14.73;;;;;;;17.43;45.38;99433.84;10418720;28;20239;-61
2022/12/31 18:48:40;;;;;;;2.53;2.13;;;;;;;16.99;45.44;99487.50;10398259;28;20956;-61
2022/12/31 18:53:42;;;;;;;2.20;2.00;;;;;;;17.66;44.14;99451.94;10418988;28;20231;-61
2022/12/31 18:58:44;;;;;;;3.10;2.63;;;;;;;17.74;44.31;99439.91;10429046;28;20837;-62
2022/12/31 19:03:46;;;;;;;6.83;4.70;;;;;;;17.54;43.98;99459.22;10434223;28;20234;-61
2022/12/31 19:08:48;;;;;;;7.60;4.87;;;;;;;17.14;44.41;99493.25;10419781;28;20231;-62
2022/12/31 19:18:59;;;;;;;2.63;2.43;;;;;;;16.87;44.81;99502.81;10353919;28;20229;-37
2022/12/31 19:24:22;;;;;;;2.60;2.40;;;;;;;17.60;44.49;99523.19;10366133;28;20236;-37
2022/12/31 19:29:26;;;;;;;3.57;2.60;;;;;;;18.78;42.57;99460.44;10355726;28;20278;-38
2022/12/31 19:34:27;;;;;;;2.50;2.30;;;;;;;18.80;42.21;99452.88;10351571;28;20351;-38
2022/12/31 19:39:29;;;;;;;3.97;2.47;;;;;;;19.22;41.76;99429.94;10315853;28;20234;-38
2022/12/31 19:44:31;;;;;;;4.03;3.00;;;;;;;18.51;42.90;99462.16;10322498;28;20226;-38
2022/12/31 19:49:33;;;;;;;78.13;61.40;;;;;;;17.94;44.03;99509.84;10314275;28;20234;-38
2022/12/31 19:54:34;;;;;;;4.60;3.73;;;;;;;18.94;42.64;99441.75;10308462;28;20229;-38
2022/12/31 19:59:36;;;;;;;4.83;2.73;;;;;;;18.96;42.56;99450.44;10310922;28;20233;-38
2022/12/31 20:04:38;;;;;;;5.23;2.73;;;;;;;18.28;43.46;99494.53;10321632;28;20244;-38
2022/12/31 20:09:40;;;;;;;2.93;2.47;;;;;;;17.50;44.37;99534.59;10316560;28;20768;-38
2022/12/31 20:14:42;;;;;;;2.57;2.37;;;;;;;16.61;45.56;99524.63;10315947;28;20245;-38
2022/12/31 20:19:44;;;;;;;2.97;2.67;;;;;;;17.25;44.58;99525.94;10305222;28;20241;-38
2022/12/31 20:24:46;;;;;;;2.30;2.10;;;;;;;18.14;43.68;99503.19;10308331;28;20242;-38
2022/12/31 20:29:48;;;;;;;2.90;2.60;;;;;;;18.34;43.15;99462.13;10316061;28;20639;-38
2022/12/31 20:34:50;;;;;;;2.93;2.50;;;;;;;18.47;42.88;99499.75;10321606;28;20644;-38
2022/12/31 20:39:52;;;;;;;3.13;2.60;;;;;;;17.77;43.99;99508.97;10317508;28;20283;-38
2022/12/31 20:44:53;;;;;;;2.93;2.50;;;;;;;17.98;43.31;99507.47;10317696;28;20233;-38
2022/12/31 20:49:55;;;;;;;4.17;2.80;;;;;;;17.91;43.02;99483.25;10324311;28;20742;-38
2022/12/31 20:55:14;;;;;;;19.63;14.13;;;;;;;18.54;42.91;99483.34;10318825;28;20703;-38
2022/12/31 21:00:16;;;;;;;2.97;2.63;;;;;;;17.35;43.94;99518.84;10308593;28;20230;-38
2022/12/31 21:05:18;;;;;;;2.20;2.00;;;;;;;15.80;46.48;99529.41;10318083;28;20245;-38
2022/12/31 21:10:20;;;;;;;3.03;2.30;;;;;;;15.96;45.95;99554.97;10324712;28;20238;-38
2022/12/31 21:15:22;;;;;;;3.60;2.90;;;;;;;16.22;45.35;99555.69;10320060;28;20241;-38
2022/12/31 21:20:24;;;;;;;10.43;7.10;;;;;;;18.47;43.01;99467.25;10315733;28;20289;-38
2022/12/31 21:25:25;;;;;;;5.83;3.30;;;;;;;15.98;45.16;99547.47;10302563;28;20324;-38
2022/12/31 21:30:27;;;;;;;3.17;2.50;;;;;;;16.55;45.25;99562.53;10315076;28;20249;-38
2022/12/31 21:35:29;;;;;;;2.90;2.60;;;;;;;16.47;46.05;99592.59;10316596;28;20901;-38
2022/12/31 21:40:46;;;;;;;3.83;2.80;;;;;;;16.05;46.20;99612.16;10317084;28;20605;-38
2022/12/31 21:45:59;;;;;;;3.67;2.70;;;;;;;16.90;45.10;99561.81;10311542;28;20226;-38
2022/12/31 21:51:07;;;;;;;19.90;15.17;;;;;;;17.65;44.19;99519.81;10308230;28;20268;-38
2022/12/31 21:56:10;;;;;;;6.67;4.77;;;;;;;18.89;42.24;99509.41;10302751;28;20252;-38
2022/12/31 22:06:38;;;;;;;5.83;2.97;;;;;;;16.10;45.41;99625.81;10273676;28;22860;-38
2022/12/31 22:11:40;;;;;;;2.73;2.53;;;;;;;14.99;47.63;99614.75;10285431;28;20245;-38
2022/12/31 22:16:42;;;;;;;3.67;2.60;;;;;;;15.62;45.62;99607.63;10328026;28;20237;-38
2022/12/31 22:21:44;;;;;;;2.73;2.30;;;;;;;15.29;47.22;99619.50;10363731;28;20260;-38
2022/12/31 22:26:46;;;;;;;3.20;2.50;;;;;;;16.75;44.74;99589.25;10360347;28;20717;-38
2022/12/31 22:31:47;;;;;;;3.10;2.60;;;;;;;16.44;45.20;99618.16;10360505;28;20232;-38
2022/12/31 22:36:49;;;;;;;8.13;5.70;;;;;;;17.08;43.99;99583.38;10335438;28;20344;-38
2022/12/31 22:41:51;;;;;;;3.93;3.40;;;;;;;16.80;44.06;99613.72;10337670;28;20240;-38
2022/12/31 22:46:54;;;;;;;3.47;2.80;;;;;;;17.16;44.83;99601.16;10326214;28;20237;-37
2022/12/31 22:51:55;;;;;;;3.80;2.90;;;;;;;16.91;43.82;99650.75;10305921;28;20265;-38
2022/12/31 22:57:03;;;;;;;3.93;2.53;;;;;;;17.12;43.74;99637.81;10310209;28;20238;-37
2022/12/31 23:02:05;;;;;;;3.93;3.20;;;;;;;17.34;43.68;99657.84;10296158;28;20233;-38
2022/12/31 23:07:07;;;;;;;7.47;4.90;;;;;;;17.75;42.95;99606.63;10304954;28;20384;-38
2022/12/31 23:12:09;;;;;;;7.17;5.17;;;;;;;16.49;44.06;99652.59;10299675;28;20234;-38
2022/12/31 23:28:01;;;;;;;7.50;4.30;;;;;;;15.87;45.29;99697.44;10307270;28;21108;-37
2022/12/31 23:33:03;;;;;;;7.80;5.07;;;;;;;15.66;45.19;99684.34;10319842;28;20233;-37
2022/12/31 23:38:04;;;;;;;9.67;5.23;;;;;;;15.95;45.05;99692.81;10311257;28;20885;-37
2022/12/31 23:43:07;;;;;;;6.77;4.33;;;;;;;17.53;43.66;99611.78;10313571;28;20238;-37
2022/12/31 23:48:09;;;;;;;6.53;4.70;;;;;;;15.00;46.39;99654.13;10316402;28;20283;-37
2022/12/31 23:53:11;;;;;;;7.30;5.20;;;;;;;15.20;46.21;99656.69;10311469;28;20240;-37
2022/12/31 23:58:13;;;;;;;9.17;5.87;;;;;;;15.16;46.60;99670.81;10310548;28;20640;-37
